Time;durP1;ratioP1;P1;durP2;ratioP2;P2;SDS_P1;SDS_P2;PMS_P1;PMS_P2;Temp;Humidity;BMP_temperature;BMP_pressure;BME280_temperature;BME280_humidity;BME280_pressure;Samples;Min_cycle;Max_cycle;Signal;HPM_P1;HPM_P2
2022/05/26 00:02:04;;;;;;;6.00;2.45;;;;;;;14.06;100.00;101817.78;5287713;28;20103;-70
2022/05/26 00:04:34;;;;;;;8.93;2.40;;;;;;;14.02;100.00;101822.66;5267406;28;20052;-71
2022/05/26 00:07:05;;;;;;;6.80;2.25;;;;;;;14.00;100.00;101820.13;5289616;27;20066;-71
2022/05/26 00:09:35;;;;;;;8.50;2.70;;;;;;;13.96;100.00;101824.19;5266591;28;20097;-71
2022/05/26 00:12:06;;;;;;;7.53;2.38;;;;;;;13.98;100.00;101822.16;5267947;28;20059;-72
2022/05/26 00:14:39;;;;;;;9.32;2.53;;;;;;;13.98;100.00;101826.69;5287546;28;20054;-71
2022/05/26 00:17:10;;;;;;;9.32;2.17;;;;;;;14.00;100.00;101827.38;5270248;28;20012;-71
2022/05/26 00:19:40;;;;;;;7.85;2.67;;;;;;;14.00;100.00;101830.91;5276996;28;20050;-71
2022/05/26 00:22:11;;;;;;;14.82;3.42;;;;;;;14.05;100.00;101833.13;5287030;28;20022;-71
2022/05/26 00:24:41;;;;;;;9.02;2.47;;;;;;;14.07;100.00;101830.28;5287240;28;20138;-71
2022/05/26 00:27:12;;;;;;;8.65;2.80;;;;;;;14.08;100.00;101840.06;5267628;28;20031;-71
2022/05/26 00:29:42;;;;;;;7.18;3.28;;;;;;;14.06;100.00;101834.81;5265909;28;20058;-71
2022/05/26 00:32:13;;;;;;;11.50;2.80;;;;;;;14.06;100.00;101845.63;5266185;28;20076;-71
2022/05/26 00:34:43;;;;;;;7.78;2.63;;;;;;;14.04;100.00;101833.28;5279474;28;20419;-71
2022/05/26 00:37:14;;;;;;;7.68;2.58;;;;;;;14.03;100.00;101835.16;5266289;28;20039;-71
2022/05/26 00:39:45;;;;;;;7.68;2.83;;;;;;;14.04;100.00;101834.13;5268199;28;20030;-71
2022/05/26 00:42:15;;;;;;;7.80;3.22;;;;;;;14.05;100.00;101841.22;5276721;28;20024;-71
2022/05/26 00:44:46;;;;;;;12.38;3.10;;;;;;;14.02;100.00;101829.94;5283139;28;20168;-71
2022/05/26 00:47:20;;;;;;;8.98;2.72;;;;;;;13.95;100.00;101827.84;5275268;28;20032;-71
2022/05/26 00:50:27;;;;;;;17.08;3.60;;;;;;;13.87;100.00;101830.56;5284967;28;20377;-71
2022/05/26 00:52:59;;;;;;;;;;;;;;;13.84;100.00;101830.03;5273587;28;20057;-72
2022/05/26 00:55:40;;;;;;;10.82;3.53;;;;;;;13.76;100.00;101830.88;5275015;28;19914;-70
2022/05/26 00:58:17;;;;;;;10.43;4.10;;;;;;;13.76;100.00;101838.13;5265955;28;20073;-71
2022/05/26 01:00:49;;;;;;;10.70;3.28;;;;;;;13.71;100.00;101831.34;5281518;28;20472;-72
2022/05/26 01:03:27;;;;;;;14.50;3.70;;;;;;;13.72;100.00;101842.97;5286908;28;20034;-70
2022/05/26 01:06:06;;;;;;;7.82;3.75;;;;;;;13.67;100.00;101832.66;5283322;28;20020;-71
2022/05/26 01:08:45;;;;;;;13.20;3.90;;;;;;;13.62;100.00;101840.41;5274826;28;20374;-71
2022/05/26 01:11:16;;;;;;;18.13;4.15;;;;;;;13.60;100.00;101839.69;5279444;28;20031;-70
2022/05/26 01:13:51;;;;;;;13.73;4.22;;;;;;;13.57;100.00;101847.28;5280180;28;20473;-70
2022/05/26 01:16:32;;;;;;;14.50;4.25;;;;;;;13.58;100.00;101839.03;5278340;28;20477;-70
2022/05/26 01:19:39;;;;;;;11.18;4.18;;;;;;;13.58;100.00;101839.03;5271403;28;20649;-70
2022/05/26 01:22:47;;;;;;;18.25;4.47;;;;;;;13.58;100.00;101841.72;5273145;28;20027;-71
2022/05/26 01:25:55;;;;;;;19.88;5.05;;;;;;;13.63;100.00;101842.09;5270658;28;20550;-70
2022/05/26 01:28:58;;;;;;;19.95;5.13;;;;;;;13.61;100.00;101845.97;5265435;28;20024;-70
2022/05/26 01:31:49;;;;;;;18.60;4.10;;;;;;;13.60;100.00;101855.03;5264715;28;20054;-70
2022/05/26 01:34:38;;;;;;;15.30;4.75;;;;;;;13.58;100.00;101852.50;5265513;28;20024;-70
2022/05/26 01:37:09;;;;;;;17.20;5.05;;;;;;;13.56;100.00;101859.94;5265703;28;20012;-70
2022/05/26 01:40:18;;;;;;;12.65;4.13;;;;;;;13.61;100.00;101856.75;5267607;28;20108;-71
2022/05/26 01:43:03;;;;;;;;;;;;;;;13.63;100.00;101852.88;5270936;28;20304;-70
2022/05/26 01:45:52;;;;;;;;;;;;;;;13.65;100.00;101858.09;5265996;28;19904;-70
2022/05/26 01:48:46;;;;;;;19.27;4.57;;;;;;;13.65;100.00;101863.50;5273348;28;19912;-71
2022/05/26 01:51:38;;;;;;;13.32;3.97;;;;;;;13.62;100.00;101870.06;5268128;28;20035;-71
2022/05/26 01:54:16;;;;;;;15.68;4.82;;;;;;;13.64;100.00;101867.19;5266538;28;20028;-70
2022/05/26 01:56:54;;;;;;;14.82;5.45;;;;;;;13.65;100.00;101875.13;5276918;28;20024;-70
2022/05/26 01:59:33;;;;;;;22.00;5.40;;;;;;;13.71;100.00;101874.50;5272000;28;20023;-70
2022/05/26 02:02:07;;;;;;;26.08;5.30;;;;;;;13.70;100.00;101883.59;5290336;28;20030;-71
2022/05/26 02:04:42;;;;;;;22.25;5.40;;;;;;;13.69;100.00;101873.78;5269305;28;20027;-71
2022/05/26 02:07:30;;;;;;;23.77;4.38;;;;;;;13.68;100.00;101877.50;5277482;28;20396;-71
2022/05/26 02:10:08;;;;;;;17.25;5.00;;;;;;;13.66;100.00;101886.78;5268781;28;20569;-71
2022/05/26 02:12:46;;;;;;;19.67;5.72;;;;;;;13.63;100.00;101884.38;5269117;28;20023;-71
2022/05/26 02:15:36;;;;;;;18.80;4.90;;;;;;;13.62;100.00;101891.63;5284413;28;20031;-71
2022/05/26 02:18:16;;;;;;;16.75;5.05;;;;;;;13.70;100.00;101894.38;5289657;28;20019;-71
2022/05/26 02:20:52;;;;;;;19.20;4.82;;;;;;;13.73;100.00;101902.13;5275971;28;20160;-71
2022/05/26 02:23:39;;;;;;;13.93;4.70;;;;;;;13.74;100.00;101902.97;5274666;28;20430;-71
2022/05/26 02:26:10;;;;;;;20.77;5.20;;;;;;;13.71;100.00;101901.47;5280370;28;20038;-71
2022/05/26 02:31:30;;;;;;;24.27;5.60;;;;;;;13.71;100.00;101898.75;5274023;28;20055;-71
2022/05/26 02:34:04;;;;;;;19.65;4.70;;;;;;;13.70;100.00;101902.47;5278305;28;20507;-71
2022/05/26 02:36:37;;;;;;;22.83;4.60;;;;;;;13.69;100.00;101905.31;5272548;28;20055;-71
2022/05/26 02:39:07;;;;;;;36.50;5.05;;;;;;;13.74;100.00;101913.75;5268437;28;20024;-71
2022/05/26 02:41:39;;;;;;;20.23;5.10;;;;;;;13.78;100.00;101917.00;5268488;28;20392;-72
2022/05/26 02:44:10;;;;;;;16.70;4.55;;;;;;;13.78;100.00;101909.75;5268338;28;20099;-70
2022/05/26 02:47:04;;;;;;;21.98;4.90;;;;;;;13.75;100.00;101910.06;5274354;28;20115;-70
2022/05/26 02:49:53;;;;;;;17.40;4.50;;;;;;;13.78;100.00;101912.44;5275827;28;20533;-70
2022/05/26 02:52:46;;;;;;;24.95;4.55;;;;;;;13.71;100.00;101908.72;5275968;28;20035;-71
2022/05/26 02:55:35;;;;;;;27.25;5.28;;;;;;;13.67;100.00;101916.25;5268080;28;20027;-71
2022/05/26 02:58:29;;;;;;;22.33;5.32;;;;;;;13.65;100.00;101914.72;5274301;28;20039;-72
2022/05/26 03:01:00;;;;;;;17.17;4.72;;;;;;;13.63;100.00;101908.66;5271758;28;20078;-72
2022/05/26 03:03:34;;;;;;;25.70;4.57;;;;;;;13.59;100.00;101910.81;5268177;28;20028;-72
2022/05/26 03:06:12;;;;;;;26.50;5.17;;;;;;;13.53;100.00;101911.47;5273331;28;20084;-71
2022/05/26 03:08:44;;;;;;;16.05;4.30;;;;;;;13.49;100.00;101912.78;5288822;28;20034;-71
2022/05/26 03:11:18;;;;;;;25.08;4.03;;;;;;;13.44;100.00;101913.25;5267293;28;20397;-71
2022/05/26 03:13:50;;;;;;;24.40;5.50;;;;;;;13.42;100.00;101922.53;5280384;28;20043;-71
2022/05/26 03:16:21;;;;;;;21.40;5.28;;;;;;;13.41;100.00;101932.47;5276973;28;20050;-71
2022/05/26 03:18:51;;;;;;;23.50;5.20;;;;;;;13.43;100.00;101930.44;5281185;28;20085;-71
2022/05/26 03:21:22;;;;;;;26.35;4.93;;;;;;;13.47;100.00;101934.50;5267808;28;20016;-72
2022/05/26 03:23:52;;;;;;;27.45;4.32;;;;;;;13.47;100.00;101936.38;5281490;28;20103;-71
2022/05/26 03:26:23;;;;;;;19.90;4.70;;;;;;;13.48;100.00;101928.13;5279500;28;20023;-72
2022/05/26 03:28:53;;;;;;;20.55;4.47;;;;;;;13.53;100.00;101934.88;5282380;28;20059;-71
2022/05/26 03:31:24;;;;;;;21.85;5.30;;;;;;;13.57;100.00;101942.50;5267410;28;20074;-71
2022/05/26 03:42:25;;;;;;;24.10;5.53;;;;;;;13.50;100.00;101945.97;5277241;28;20358;-73
2022/05/26 03:44:57;;;;;;;22.35;5.13;;;;;;;13.47;100.00;101945.31;5286020;28;20494;-72
2022/05/26 03:47:28;;;;;;;15.27;6.65;;;;;;;13.49;100.00;101942.44;5275245;28;20031;-72
2022/05/26 03:49:59;;;;;;;28.98;6.97;;;;;;;13.47;100.00;101952.53;5280342;28;20493;-70
2022/05/26 03:52:29;;;;;;;32.88;5.65;;;;;;;13.45;100.00;101954.53;5280745;28;20028;-71
2022/05/26 03:55:00;;;;;;;23.13;5.13;;;;;;;13.43;100.00;101951.16;5274919;28;20028;-72
2022/05/26 03:57:31;;;;;;;24.60;5.18;;;;;;;13.41;100.00;101947.78;5274315;28;20024;-71
2022/05/26 04:00:04;;;;;;;29.45;6.15;;;;;;;13.38;100.00;101950.78;5288430;28;20598;-72
2022/05/26 04:02:35;;;;;;;28.38;6.05;;;;;;;13.34;100.00;101950.25;5284267;28;20481;-71
2022/05/26 04:05:08;;;;;;;28.85;6.18;;;;;;;13.32;100.00;101962.22;5277977;28;20027;-72
2022/05/26 04:07:38;;;;;;;23.45;5.32;;;;;;;13.33;100.00;101963.91;5283352;28;20031;-72
2022/05/26 04:10:11;;;;;;;27.55;6.53;;;;;;;13.33;100.00;101967.44;5275457;28;20024;-72
2022/05/26 04:12:42;;;;;;;27.33;6.63;;;;;;;13.29;100.00;101965.19;5272704;28;20032;-72
2022/05/26 04:15:15;;;;;;;27.33;5.55;;;;;;;13.27;100.00;101969.91;5287161;28;20023;-72
2022/05/26 04:17:45;;;;;;;24.13;6.75;;;;;;;13.25;100.00;101972.75;5287761;28;20569;-71
2022/05/26 04:20:20;;;;;;;29.00;5.78;;;;;;;13.26;100.00;101966.38;5273656;28;20111;-70
2022/05/26 04:22:50;;;;;;;25.33;6.78;;;;;;;13.24;100.00;101971.06;5276839;28;20153;-71
2022/05/26 04:25:22;;;;;;;32.28;6.50;;;;;;;13.24;100.00;101978.31;5279626;28;20143;-72
2022/05/26 04:27:54;;;;;;;23.83;6.38;;;;;;;13.28;100.00;101975.16;5266269;28;20051;-70
2022/05/26 04:30:25;;;;;;;26.25;6.57;;;;;;;13.34;100.00;101985.28;5271543;28;20499;-70
2022/05/26 04:32:56;;;;;;;23.48;6.72;;;;;;;13.37;100.00;101985.00;5275041;28;20028;-70
2022/05/26 04:35:26;;;;;;;27.05;7.25;;;;;;;13.38;100.00;101983.97;5280023;28;20169;-71
2022/05/26 04:37:57;;;;;;;33.20;7.53;;;;;;;13.40;100.00;101991.91;5265982;28;20102;-71
2022/05/26 04:40:27;;;;;;;32.78;7.13;;;;;;;13.46;100.00;101994.00;5266319;28;20107;-71
2022/05/26 04:42:58;;;;;;;24.80;7.18;;;;;;;13.54;100.00;101995.88;5280090;28;20109;-71
2022/05/26 04:45:28;;;;;;;26.63;6.82;;;;;;;13.58;100.00;101995.41;5266123;28;20031;-70
2022/05/26 04:47:59;;;;;;;30.52;7.97;;;;;;;13.65;100.00;101996.47;5280099;28;20491;-70
2022/05/26 04:50:29;;;;;;;21.90;7.22;;;;;;;13.71;100.00;102003.94;5277106;28;20032;-70
2022/05/26 04:53:00;;;;;;;29.25;7.63;;;;;;;13.80;100.00;102003.97;5273815;28;20027;-71
2022/05/26 04:55:30;;;;;;;27.75;7.75;;;;;;;13.85;100.00;102007.03;5274662;28;20023;-70
2022/05/26 04:58:01;;;;;;;22.20;7.13;;;;;;;13.89;100.00;101998.47;5271767;28;20030;-71
2022/05/26 05:00:31;;;;;;;35.88;8.40;;;;;;;13.92;100.00;102006.25;5273584;28;20024;-71
2022/05/26 05:03:02;;;;;;;22.30;8.77;;;;;;;13.98;100.00;102004.75;5272681;28;20019;-71
2022/05/26 05:05:33;;;;;;;30.77;8.13;;;;;;;14.03;100.00;102020.47;5273296;28;20024;-70
2022/05/26 05:08:03;;;;;;;28.02;7.40;;;;;;;14.08;100.00;102013.59;5287114;28;20016;-70
2022/05/26 05:10:34;;;;;;;25.77;7.90;;;;;;;14.13;100.00;102015.81;5286574;27;20485;-71
2022/05/26 05:13:05;;;;;;;35.13;9.30;;;;;;;14.19;100.00;102024.09;5277502;28;20145;-71
2022/05/26 05:15:55;;;;;;;35.90;8.00;;;;;;;14.29;100.00;102023.97;5279309;28;20053;-70
2022/05/26 05:18:26;;;;;;;36.03;7.65;;;;;;;14.30;100.00;102031.03;5266027;28;20486;-70
2022/05/26 05:21:00;;;;;;;37.65;8.48;;;;;;;14.31;100.00;102026.50;5278052;28;20024;-71
2022/05/26 05:23:33;;;;;;;22.77;7.75;;;;;;;14.28;100.00;102037.63;5265393;28;20028;-71
2022/05/26 05:26:04;;;;;;;29.45;8.13;;;;;;;14.30;100.00;102036.44;5264357;28;20024;-70
2022/05/26 05:28:40;;;;;;;25.25;7.88;;;;;;;14.30;100.00;102046.41;5282176;28;20092;-70
2022/05/26 05:31:16;;;;;;;36.13;9.00;;;;;;;14.32;100.00;102041.72;5275848;28;20062;-71
2022/05/26 05:33:50;;;;;;;33.72;8.55;;;;;;;14.35;100.00;102046.75;5280492;28;20047;-71
2022/05/26 05:36:25;;;;;;;27.20;8.80;;;;;;;14.43;100.00;102052.22;5281515;28;20015;-71
2022/05/26 05:38:58;;;;;;;33.92;9.02;;;;;;;14.49;100.00;102051.59;5269762;28;20421;-71
2022/05/26 05:41:31;;;;;;;32.05;9.57;;;;;;;14.62;100.00;102067.34;5269716;28;20058;-70
2022/05/26 05:44:03;;;;;;;28.20;8.02;;;;;;;14.61;100.00;102065.63;5269725;28;20020;-71
2022/05/26 05:46:34;;;;;;;32.25;9.88;;;;;;;14.64;100.00;102068.00;5282601;28;20031;-71
2022/05/26 05:49:05;;;;;;;34.85;9.77;;;;;;;14.70;100.00;102061.94;5282297;28;20019;-70
2022/05/26 05:51:35;;;;;;;34.22;9.70;;;;;;;14.75;100.00;102065.00;5270200;28;20024;-70
2022/05/26 05:54:06;;;;;;;30.77;8.43;;;;;;;14.84;100.00;102066.72;5282942;28;20102;-70
2022/05/26 05:56:36;;;;;;;30.75;9.40;;;;;;;14.93;100.00;102075.72;5277267;28;20483;-71
2022/05/26 05:59:07;;;;;;;23.52;8.95;;;;;;;15.20;100.00;102070.00;5276359;28;20087;-71
2022/05/26 06:01:38;;;;;;;24.30;8.93;;;;;;;15.21;100.00;102063.63;5281555;28;20077;-72
2022/05/26 06:04:08;;;;;;;30.27;9.30;;;;;;;15.40;100.00;102064.28;5269051;28;20023;-72
2022/05/26 06:06:41;;;;;;;26.88;9.35;;;;;;;15.38;100.00;102064.47;5275133;28;20035;-70
2022/05/26 06:09:15;;;;;;;27.00;9.77;;;;;;;15.36;100.00;102065.63;5271566;28;20030;-69
2022/05/26 06:11:48;;;;;;;31.23;11.33;;;;;;;15.40;100.00;102075.09;5272084;28;20435;-69
2022/05/26 06:14:18;;;;;;;27.63;8.75;;;;;;;15.63;100.00;102073.44;5272542;28;20024;-69
2022/05/26 06:16:49;;;;;;;29.15;9.77;;;;;;;15.73;100.00;102082.25;5268859;28;20028;-69
2022/05/26 06:19:19;;;;;;;35.45;9.77;;;;;;;15.69;100.00;102080.88;5271564;27;20429;-69
2022/05/26 06:21:50;;;;;;;32.78;10.02;;;;;;;15.79;100.00;102078.00;5273495;27;20032;-69
2022/05/26 06:24:23;;;;;;;25.55;9.90;;;;;;;15.88;100.00;102084.25;5276620;28;20427;-70
2022/05/26 06:26:53;;;;;;;28.58;9.40;;;;;;;16.25;100.00;102092.63;5269956;28;20824;-69
2022/05/26 06:29:52;;;;;;;27.08;9.63;;;;;;;16.37;100.00;102095.81;5267718;28;20055;-69
2022/05/26 06:37:55;;;;;;;33.72;11.02;;;;;;;16.51;100.00;102103.19;5269280;28;20016;-69
2022/05/26 06:40:25;;;;;;;23.23;9.40;;;;;;;16.28;100.00;102102.28;5286438;27;20034;-69
2022/05/26 06:42:56;;;;;;;23.42;9.73;;;;;;;16.28;100.00;102105.00;5272891;28;20469;-69
2022/05/26 06:45:26;;;;;;;32.03;10.32;;;;;;;16.37;100.00;102117.50;5274593;28;20051;-69
2022/05/26 06:47:57;;;;;;;23.52;9.80;;;;;;;16.63;100.00;102110.97;5266537;28;20023;-69
2022/05/26 06:50:27;;;;;;;30.83;10.10;;;;;;;16.56;100.00;102108.94;5266393;28;20028;-69
2022/05/26 06:52:58;;;;;;;24.80;9.80;;;;;;;16.64;100.00;102113.50;5267743;28;20466;-69
2022/05/26 06:55:28;;;;;;;28.55;10.43;;;;;;;16.74;100.00;102113.31;5278027;28;20063;-69
2022/05/26 06:57:59;;;;;;;25.55;10.43;;;;;;;16.97;100.00;102122.38;5267000;28;20104;-69
2022/05/26 07:00:29;;;;;;;21.33;9.68;;;;;;;17.03;100.00;102128.94;5265810;28;20118;-69
2022/05/26 07:03:00;;;;;;;35.17;11.13;;;;;;;17.30;100.00;102124.88;5266386;28;20020;-69
2022/05/26 07:05:35;;;;;;;23.30;9.90;;;;;;;17.44;100.00;102132.25;5266088;28;20522;-70
2022/05/26 07:08:06;;;;;;;35.20;10.82;;;;;;;16.97;100.00;102125.09;5283018;28;20020;-69
2022/05/26 07:10:37;;;;;;;27.83;11.07;;;;;;;17.42;100.00;102128.00;5269447;28;20399;-70
2022/05/26 07:13:08;;;;;;;21.00;9.00;;;;;;;17.81;100.00;102128.75;5266569;28;20545;-70
2022/05/26 07:15:40;;;;;;;23.42;9.95;;;;;;;18.32;100.00;102133.50;5266797;28;20115;-70
2022/05/26 07:18:10;;;;;;;19.77;8.48;;;;;;;18.63;100.00;102131.47;5265444;28;20060;-70
2022/05/26 07:20:41;;;;;;;25.48;8.95;;;;;;;18.95;100.00;102134.00;5271464;28;20492;-70
2022/05/26 07:23:11;;;;;;;19.23;7.60;;;;;;;19.05;100.00;102129.09;5284887;28;20294;-70
2022/05/26 07:25:43;;;;;;;22.95;7.60;;;;;;;18.48;100.00;102127.09;5266183;28;20115;-70
2022/05/26 07:28:14;;;;;;;19.48;7.38;;;;;;;18.81;100.00;102138.41;5265695;28;20273;-70
2022/05/26 07:30:44;;;;;;;18.52;6.55;;;;;;;19.03;100.00;102126.59;5276397;28;20052;-70
2022/05/26 07:33:15;;;;;;;22.15;6.85;;;;;;;19.18;100.00;102133.84;5279787;28;20016;-71
2022/05/26 07:35:46;;;;;;;24.88;7.90;;;;;;;18.57;100.00;102137.66;5265941;28;20028;-71
2022/05/26 07:41:17;;;;;;;17.95;7.43;;;;;;;19.01;100.00;102138.66;5271438;28;20115;-70
2022/05/26 07:43:55;;;;;;;13.93;5.82;;;;;;;18.98;100.00;102139.91;5264635;28;20464;-70
2022/05/26 07:46:26;;;;;;;19.70;5.85;;;;;;;19.50;100.00;102154.28;5266390;28;20020;-70
2022/05/26 07:48:56;;;;;;;18.55;5.78;;;;;;;19.32;100.00;102152.84;5269117;28;20030;-70
2022/05/26 07:51:27;;;;;;;14.38;5.50;;;;;;;19.90;100.00;102141.94;5270635;28;20031;-71
2022/05/26 07:54:00;;;;;;;18.75;5.30;;;;;;;20.51;100.00;102153.09;5270297;28;20111;-70
2022/05/26 07:56:33;;;;;;;18.67;5.50;;;;;;;20.53;100.00;102147.44;5275039;28;20028;-72
2022/05/26 07:59:05;;;;;;;20.05;6.40;;;;;;;19.95;100.00;102149.50;5272995;28;20027;-72
2022/05/26 08:01:36;;;;;;;12.85;4.95;;;;;;;19.77;100.00;102144.53;5274794;28;20020;-70
2022/05/26 08:04:07;;;;;;;16.52;5.38;;;;;;;19.64;100.00;102143.38;5267122;28;20031;-71
2022/05/26 08:06:37;;;;;;;11.70;5.43;;;;;;;19.39;100.00;102156.50;5267603;28;20028;-71
2022/05/26 08:09:08;;;;;;;20.48;6.53;;;;;;;18.99;100.00;102157.06;5269014;28;20028;-70
2022/05/26 08:11:38;;;;;;;19.20;6.10;;;;;;;19.44;100.00;102152.34;5274115;28;20556;-71
2022/05/26 08:14:09;;;;;;;18.52;5.07;;;;;;;20.06;100.00;102154.41;5282232;28;20421;-71
2022/05/26 08:16:40;;;;;;;14.50;5.50;;;;;;;20.62;100.00;102157.97;5270431;28;20024;-71
2022/05/26 08:19:11;;;;;;;18.75;5.82;;;;;;;20.38;100.00;102161.13;5282681;28;20098;-72
2022/05/26 08:21:42;;;;;;;13.73;5.53;;;;;;;21.19;100.00;102164.13;5263484;28;20020;-70
2022/05/26 08:24:13;;;;;;;14.68;5.20;;;;;;;20.64;100.00;102153.19;5279554;28;20032;-71
2022/05/26 08:26:43;;;;;;;13.35;5.03;;;;;;;20.54;100.00;102160.03;5284257;28;20059;-72
2022/05/26 08:29:14;;;;;;;18.10;5.63;;;;;;;19.58;100.00;102173.25;5283230;28;20507;-71
2022/05/26 08:31:45;;;;;;;16.60;5.55;;;;;;;19.02;100.00;102167.53;5284192;28;20419;-72
2022/05/26 08:34:17;;;;;;;17.50;6.13;;;;;;;18.69;100.00;102159.81;5283752;28;20493;-71
2022/05/26 08:36:48;;;;;;;21.73;6.15;;;;;;;18.83;100.00;102172.56;5284633;28;20088;-71
2022/05/26 08:39:18;;;;;;;20.05;5.88;;;;;;;19.75;100.00;102180.13;5278304;28;20369;-71
2022/05/26 08:41:53;;;;;;;16.10;5.63;;;;;;;19.66;100.00;102182.13;5264095;28;20022;-71
2022/05/26 08:44:30;;;;;;;14.43;6.28;;;;;;;19.79;100.00;102178.72;5275592;28;20477;-71
2022/05/26 08:47:09;;;;;;;13.18;5.28;;;;;;;20.27;100.00;102180.78;5277102;28;20031;-70
2022/05/26 08:49:46;;;;;;;12.57;4.40;;;;;;;20.89;100.00;102188.97;5269762;28;20031;-71
2022/05/26 08:52:23;;;;;;;17.42;4.30;;;;;;;21.42;100.00;102189.19;5276537;28;20500;-71
2022/05/26 08:55:02;;;;;;;15.15;4.25;;;;;;;21.41;100.00;102201.16;5269610;28;20050;-71
2022/05/26 08:57:40;;;;;;;13.57;4.38;;;;;;;21.59;100.00;102205.22;5269730;28;20023;-71
2022/05/26 09:00:16;;;;;;;14.10;4.40;;;;;;;21.96;100.00;102204.63;5274552;28;20027;-71
2022/05/26 09:02:48;;;;;;;12.60;4.18;;;;;;;22.00;100.00;102201.50;5264072;28;20020;-71
2022/05/26 09:05:20;;;;;;;10.30;4.38;;;;;;;21.78;100.00;102203.56;5276238;28;20062;-71
2022/05/26 09:14:07;;;;;;;13.57;3.78;;;;;;;20.43;100.00;102218.63;5269426;28;20027;-71
2022/05/26 09:16:41;;;;;;;11.68;4.28;;;;;;;19.91;100.00;102215.25;5271861;28;20377;-71
2022/05/26 09:19:15;;;;;;;8.48;3.58;;;;;;;19.88;100.00;102225.69;5271012;28;20143;-70
2022/05/26 09:21:48;;;;;;;15.20;4.60;;;;;;;20.01;100.00;102222.25;5276972;28;20059;-71
2022/05/26 09:24:22;;;;;;;21.75;4.63;;;;;;;19.72;100.00;102234.97;5269291;28;20028;-71
2022/05/26 09:26:56;;;;;;;17.45;4.90;;;;;;;19.65;100.00;102223.16;5269568;28;20110;-71
2022/05/26 09:29:30;;;;;;;12.48;4.00;;;;;;;19.56;100.00;102232.44;5268614;28;20039;-71
2022/05/26 09:32:03;;;;;;;14.75;4.22;;;;;;;19.38;100.00;102238.34;5267691;28;20421;-71
2022/05/26 09:34:36;;;;;;;20.60;3.97;;;;;;;18.94;100.00;102231.06;5267660;28;20016;-70
2022/05/26 09:37:08;;;;;;;12.40;4.03;;;;;;;19.21;100.00;102231.41;5267480;28;20382;-72
2022/05/26 09:39:42;;;;;;;14.65;4.03;;;;;;;19.90;100.00;102229.09;5267294;28;20020;-71
2022/05/26 09:42:32;;;;;;;12.93;3.87;;;;;;;19.76;100.00;102233.53;5265059;28;20433;-71
2022/05/26 09:45:06;;;;;;;13.27;3.80;;;;;;;19.91;100.00;102231.59;5280099;28;20027;-72
2022/05/26 09:47:44;;;;;;;12.70;3.28;;;;;;;19.86;100.00;102230.50;5269652;28;20062;-70
2022/05/26 09:50:52;;;;;;;15.75;3.60;;;;;;;20.56;100.00;102235.13;5280406;27;20030;-71
2022/05/26 09:53:30;;;;;;;11.30;3.72;;;;;;;20.80;100.00;102236.53;5279460;28;20024;-71
2022/05/26 09:56:01;;;;;;;11.48;3.15;;;;;;;20.70;100.00;102238.78;5271857;28;20030;-70
2022/05/26 09:58:37;;;;;;;11.57;3.35;;;;;;;19.90;100.00;102234.53;5276222;28;20024;-71
2022/05/26 10:01:26;;;;;;;8.77;2.63;;;;;;;19.38;100.00;102244.59;5280755;28;20026;-70
2022/05/26 10:04:32;;;;;;;14.35;3.80;;;;;;;19.46;100.00;102246.38;5270177;28;20035;-72
2022/05/26 10:07:13;;;;;;;13.48;3.20;;;;;;;18.95;100.00;102242.78;5273997;27;20028;-71
2022/05/26 10:09:52;;;;;;;10.82;3.00;;;;;;;19.18;100.00;102243.53;5273406;28;20023;-70
2022/05/26 10:12:39;;;;;;;11.07;3.33;;;;;;;20.01;100.00;102244.91;5283704;28;20028;-71
2022/05/26 10:15:24;;;;;;;15.45;3.40;;;;;;;20.34;100.00;102225.28;5275739;28;20130;-70
2022/05/26 10:18:30;;;;;;;13.10;3.03;;;;;;;20.81;100.00;102234.66;5271046;27;20016;-70
2022/05/26 10:21:36;;;;;;;11.00;2.63;;;;;;;20.43;100.00;102224.06;5269828;28;20054;-71
2022/05/26 10:24:24;;;;;;;14.75;2.50;;;;;;;20.20;100.00;102229.78;5276200;28;20020;-70
2022/05/26 10:27:14;;;;;;;11.75;3.25;;;;;;;20.22;100.00;102224.97;5270541;28;20031;-71
2022/05/26 10:30:21;;;;;;;8.30;2.30;;;;;;;20.32;100.00;102230.91;5276422;28;20028;-71
2022/05/26 10:32:58;;;;;;;10.55;2.50;;;;;;;20.90;100.00;102239.75;5287307;28;20077;-71
2022/05/26 10:35:48;;;;;;;13.05;3.03;;;;;;;20.76;100.00;102229.81;5284795;28;20057;-71
2022/05/26 10:38:28;;;;;;;14.90;2.22;;;;;;;20.68;100.00;102241.72;5283032;28;20131;-70
2022/05/26 10:41:16;;;;;;;5.63;1.85;;;;;;;20.88;100.00;102243.72;5275954;28;20132;-70
2022/05/26 10:43:52;;;;;;;7.43;2.17;;;;;;;21.33;100.00;102244.19;5270761;28;20028;-71
2022/05/26 10:46:27;;;;;;;12.15;2.70;;;;;;;21.36;100.00;102232.88;5272404;28;20043;-71
2022/05/26 10:49:21;;;;;;;8.60;2.03;;;;;;;21.19;100.00;102240.53;5270711;28;20097;-71
2022/05/26 10:52:00;;;;;;;9.40;1.75;;;;;;;21.10;100.00;102244.47;5268181;28;20069;-71
2022/05/26 10:54:38;;;;;;;6.78;1.73;;;;;;;21.08;100.00;102233.75;5272248;28;20031;-71
2022/05/26 10:57:18;;;;;;;9.70;2.20;;;;;;;21.00;100.00;102244.00;5269938;28;20028;-71
2022/05/26 11:00:11;;;;;;;6.95;1.55;;;;;;;21.12;100.00;102237.75;5272313;28;20016;-71
2022/05/26 11:03:13;;;;;;;5.55;1.23;;;;;;;21.66;100.00;102231.47;5271340;28;20070;-71
2022/05/26 11:05:46;;;;;;;11.90;2.10;;;;;;;21.87;100.00;102233.19;5284638;28;20027;-71
2022/05/26 11:08:45;;;;;;;9.55;2.10;;;;;;;21.88;100.00;102228.56;5277929;28;20041;-71
2022/05/26 11:11:23;;;;;;;7.10;1.67;;;;;;;21.88;100.00;102234.03;5270393;28;20020;-71
2022/05/26 11:14:06;;;;;;;12.95;2.25;;;;;;;22.19;100.00;102241.69;5271636;28;20027;-71
2022/05/26 11:19:47;;;;;;;8.45;1.95;;;;;;;21.17;100.00;102254.38;5274562;28;20055;-71
2022/05/26 11:22:18;;;;;;;6.80;1.85;;;;;;;20.88;100.00;102251.88;5277172;28;20233;-71
2022/05/26 11:24:51;;;;;;;11.13;3.28;;;;;;;20.83;100.00;102241.56;5276632;28;20123;-71
2022/05/26 11:27:26;;;;;;;10.05;3.00;;;;;;;21.31;100.00;102249.84;5279513;28;20361;-73
2022/05/26 11:30:00;;;;;;;6.68;1.90;;;;;;;21.00;100.00;102238.53;5274366;28;20048;-71
2022/05/26 11:38:31;;;;;;;6.88;2.17;;;;;;;21.82;100.00;102222.06;5279709;28;20026;-71
2022/05/26 11:41:01;;;;;;;8.82;2.53;;;;;;;22.03;100.00;102234.69;5276386;28;20028;-70
2022/05/26 11:43:42;;;;;;;8.23;1.73;;;;;;;21.41;100.00;102231.19;5272465;28;20034;-71
2022/05/26 11:46:47;;;;;;;8.20;2.08;;;;;;;21.80;100.00;102218.69;5273401;28;20020;-71
2022/05/26 11:49:55;;;;;;;9.43;2.05;;;;;;;21.65;100.00;102227.06;5274433;28;20063;-71
2022/05/26 11:52:46;;;;;;;9.45;2.17;;;;;;;21.61;100.00;102219.50;5274454;28;20140;-71
2022/05/26 11:55:47;;;;;;;11.00;2.30;;;;;;;20.89;100.00;102229.88;5275890;28;20039;-71
2022/05/26 11:58:35;;;;;;;6.47;2.25;;;;;;;21.21;100.00;102219.34;5273869;28;20031;-71
2022/05/26 12:01:34;;;;;;;9.35;2.20;;;;;;;21.63;100.00;102204.56;5275188;28;20028;-71
2022/05/26 12:04:15;;;;;;;7.13;1.92;;;;;;;21.94;100.00;102203.19;5273968;28;20107;-71
2022/05/26 12:07:01;;;;;;;9.27;2.20;;;;;;;21.50;100.00;102211.91;5279697;28;20082;-71
2022/05/26 12:09:32;;;;;;;8.95;1.85;;;;;;;22.07;100.00;102205.06;5276519;28;20039;-71
2022/05/26 12:12:33;;;;;;;9.20;2.05;;;;;;;21.61;100.00;102201.22;5267513;28;20028;-71
2022/05/26 12:15:14;;;;;;;17.98;2.33;;;;;;;22.00;100.00;102202.34;5266223;28;20031;-71
2022/05/26 12:18:05;;;;;;;7.85;1.67;;;;;;;22.11;100.00;102206.38;5284589;28;20027;-71
2022/05/26 12:20:38;;;;;;;5.18;1.80;;;;;;;22.04;100.00;102194.53;5284179;28;20114;-71
2022/05/26 12:23:26;;;;;;;6.10;1.95;;;;;;;22.28;100.00;102193.94;5266467;28;20077;-71
2022/05/26 12:26:46;;;;;;;7.93;2.17;;;;;;;22.75;99.62;102198.28;5266293;28;20090;-71
2022/05/26 12:30:06;;;;;;;6.43;1.90;;;;;;;22.53;94.84;102198.75;5266573;28;20062;-71
2022/05/26 12:32:38;;;;;;;7.85;2.00;;;;;;;22.56;96.65;102203.81;5267323;28;20062;-71